Date,TemperatureHighF,TemperatureAvgF,TemperatureLowF,DewpointHighF,DewpointAvgF,DewpointLowF,HumidityHigh,HumidityAvg,HumidityLow,PressureMaxIn,PressureMinIn,WindSpeedMaxMPH,WindSpeedAvgMPH,GustSpeedMaxMPH,PrecipitationSumIn
2013-1-1,60.4,52.5,44.1,58.0,51.0,41.0,96,94,87,30.15,29.91,8,2,0,2.14
2013-1-2,43.9,42.6,40.6,41.0,38.1,37.0,89,84,77,30.26,30.14,6,1,0,0.00
2013-1-3,53.1,43.4,36.9,37.0,34.8,32.0,91,73,46,30.40,30.26,5,1,0,0.00
2013-1-4,50.5,44.0,37.5,36.0,33.6,32.0,81,67,52,30.49,30.32,5,1,0,0.00
2013-1-5,45.4,43.3,41.9,43.0,40.2,34.0,95,89,66,30.36,30.23,6,0,0,0.53
2013-1-6,56.9,46.0,35.3,44.0,40.2,32.0,95,82,58,30.31,30.21,7,1,0,0.00
2013-1-7,58.4,43.3,28.2,41.0,35.0,26.0,96,75,46,30.32,30.13,4,0,0,0.00
2013-1-8,61.6,52.6,44.2,61.0,48.7,39.0,96,87,73,30.14,29.99,5,1,0,0.01
2013-1-9,64.5,61.0,60.5,64.0,60.1,59.0,97,93,96,30.12,30.00,3,1,0,0.14
2013-1-10,64.8,49.1,60.7,64.0,46.9,59.0,98,73,92,30.09,29.93,8,1,0,1.45
2013-1-11,72.3,62.0,47.7,65.0,55.8,46.0,97,82,57,30.03,29.90,5,1,0,0.03
2013-1-12,75.8,71.8,66.6,70.0,68.1,65.0,96,88,74,29.93,29.72,16,5,0,0.07
2013-1-13,72.1,54.4,42.9,68.0,51.8,41.0,95,91,73,30.14,29.69,13,4,0,0.97
2013-1-14,42.8,38.3,35.5,40.0,35.2,33.0,92,89,83,30.20,30.08,8,3,0,0.05
2013-1-15,35.8,34.8,33.7,34.0,33.2,32.0,95,93,91,30.11,29.99,7,2,0,0.05
2013-1-16,38.5,35.7,32.9,36.0,34.0,32.0,95,93,88,30.19,30.06,8,2,0,0.14
2013-1-17,57.5,41.7,29.8,36.0,32.3,27.0,92,72,43,30.45,30.17,7,1,0,0.00
2013-1-18,58.1,41.6,29.0,38.0,30.2,25.0,94,69,29,30.52,30.35,5,0,0,0.00
2013-1-19,60.4,43.2,28.7,44.0,35.3,27.0,95,76,50,30.35,30.19,5,0,0,0.00
2013-1-20,66.0,47.8,31.3,52.0,39.0,29.0,96,75,38,30.25,30.10,5,0,0,0.00
2013-1-21,67.8,49.0,36.5,52.0,41.2,35.0,96,76,54,30.22,30.12,7,1,0,0.00
2013-1-22,63.1,48.7,37.3,44.0,37.4,31.0,83,66,48,30.33,30.22,5,0,0,0.00
2013-1-23,73.3,55.3,38.5,54.0,46.6,36.0,95,76,43,30.33,30.20,6,1,0,0.00
2013-1-24,73.0,61.5,51.7,62.0,56.9,50.0,96,85,67,30.27,30.12,7,1,0,0.00
2013-1-25,77.4,65.2,55.6,62.0,57.9,54.0,96,79,52,30.16,30.03,9,1,0,0.00
2013-1-26,72.0,61.5,53.3,62.0,56.1,50.0,92,83,66,30.20,30.10,4,1,0,0.00
2013-1-27,75.8,62.4,47.9,62.0,55.7,46.0,96,80,57,30.18,30.07,10,2,0,0.00
2013-1-28,73.9,68.1,63.5,65.0,62.8,60.0,90,83,73,30.16,30.02,13,3,0,0.00
2013-1-29,77.2,71.1,66.8,70.0,66.6,64.0,91,85,70,30.02,29.61,20,6,0,0.01
2013-1-30,72.7,52.4,36.6,68.0,40.9,29.0,95,67,45,30.16,29.61,18,3,0,0.77
2013-1-31,63.4,47.3,31.2,36.0,30.7,26.0,92,58,26,30.28,30.16,6,1,0,0.00
2013-2-1,59.9,49.2,40.5,37.0,32.3,26.0,79,55,31,30.39,30.27,5,1,0,0.00
2013-2-2,72.3,54.3,35.9,51.0,42.6,29.0,87,67,43,30.29,30.11,8,1,0,0.00
2013-2-3,70.4,53.9,39.8,47.0,38.9,30.0,94,63,25,30.27,30.07,5,0,0,0.00
2013-2-4,60.9,53.3,44.1,53.0,46.7,39.0,87,78,66,30.06,29.87,5,0,0,0.00
2013-2-5,64.8,57.2,50.2,59.0,53.9,48.0,95,88,80,30.01,29.88,3,0,0,0.00
2013-2-6,65.2,56.9,46.5,61.0,54.6,45.0,96,92,81,30.07,29.91,5,1,0,0.38
2013-2-7,68.1,60.6,54.5,59.0,56.5,53.0,96,87,70,29.95,29.86,6,0,0,0.00
2013-2-8,60.7,56.5,47.3,58.0,51.7,42.0,94,84,74,30.17,29.93,8,2,0,0.00
2013-2-9,64.2,54.2,42.1,58.0,48.6,39.0,91,82,71,30.18,29.95,10,2,0,0.00
2013-2-10,72.5,61.3,61.3,69.0,59.1,58.0,96,87,83,29.96,29.78,12,2,0,0.05
2013-2-11,61.8,48.8,51.3,61.0,47.2,49.0,96,86,84,30.12,29.92,7,2,0,0.43
2013-2-12,56.9,49.2,49.4,56.0,48.2,49.0,97,89,95,30.04,29.73,11,1,0,0.70
2013-2-13,56.5,49.3,37.3,50.0,42.0,34.0,97,77,54,30.09,29.88,14,3,0,0.00
2013-2-14,60.7,45.5,31.6,42.0,36.2,30.0,95,73,43,30.15,30.05,5,0,0,0.00
2013-2-15,65.3,49.0,33.7,46.0,38.4,32.0,95,70,38,30.25,30.10,10,2,0,0.00
2013-2-16,54.2,44.2,34.6,34.0,26.7,23.0,81,52,32,30.37,30.23,19,3,0,0.00
2013-2-17,67.9,49.1,30.3,45.0,37.3,28.0,92,67,41,30.29,30.10,11,2,0,0.00
2013-2-18,68.8,58.4,47.3,62.0,52.8,42.0,96,82,62,30.14,29.86,18,3,0,0.01
2013-2-19,63.4,53.2,43.1,56.0,38.7,30.0,94,61,31,30.26,29.96,11,2,0,0.01
2013-2-20,58.9,51.4,43.5,36.0,32.4,28.0,66,50,35,30.25,29.96,7,2,0,0.00
2013-2-21,70.1,59.5,51.3,69.0,52.2,33.0,95,78,45,29.95,29.60,12,2,0,0.51
2013-2-22,65.2,56.0,50.5,56.0,49.6,47.0,93,80,53,29.98,29.86,8,1,0,0.07
2013-2-23,65.2,53.9,45.1,48.0,44.1,39.0,88,71,50,30.00,29.87,5,1,0,0.00
2013-2-24,69.1,55.2,39.2,55.0,42.3,36.0,90,65,38,30.00,29.70,10,1,0,0.00
2013-2-25,68.9,61.5,50.1,64.0,55.8,33.0,95,83,47,29.69,29.36,13,2,0,0.30
2013-2-26,60.4,50.6,43.5,39.0,35.7,32.0,80,58,42,29.92,29.57,12,4,0,0.00
2013-2-27,69.6,51.6,36.0,46.0,37.6,31.0,94,63,31,30.08,29.91,10,2,0,0.00
2013-2-28,57.3,46.7,38.2,34.0,30.1,26.0,74,54,35,30.19,30.06,11,2,0,0.00
2013-3-1,57.2,44.3,32.4,36.0,31.0,26.0,88,63,31,30.20,30.09,11,2,0,0.00
2013-3-2,49.5,39.8,32.5,32.0,26.9,24.0,84,62,39,30.28,30.16,10,2,0,0.00
2013-3-3,61.8,44.3,26.6,35.0,29.4,24.0,92,61,30,30.28,30.06,7,2,0,0.00
2013-3-4,74.4,59.4,41.6,59.0,49.9,36.0,92,72,50,30.06,29.76,13,5,0,0.00
2013-3-5,68.8,62.1,48.2,62.0,45.2,25.0,90,58,29,30.26,29.79,16,4,0,0.00
2013-3-6,64.0,49.6,33.1,31.0,27.2,23.0,72,44,24,30.37,30.20,5,1,0,0.00
2013-3-7,64.2,49.8,34.0,37.0,32.8,29.0,86,55,30,30.34,30.19,5,0,0,0.00
2013-3-8,71.5,54.7,35.9,46.0,40.7,33.0,92,63,35,30.27,30.07,6,1,0,0.00
2013-3-9,71.5,62.3,53.5,60.0,54.6,46.0,85,76,65,30.08,29.85,10,2,0,0.00
2013-3-10,71.8,60.6,50.1,64.0,57.2,48.0,94,88,68,29.95,29.78,18,2,0,0.24
2013-3-11,58.0,49.2,40.2,46.0,34.7,32.0,87,59,38,30.05,29.93,13,2,0,0.01
2013-3-12,68.8,50.2,32.4,42.0,33.2,30.0,93,59,25,30.25,30.05,6,1,0,0.00
2013-3-13,69.1,53.7,38.8,39.0,33.0,27.0,88,51,24,30.42,30.25,7,2,0,0.00
2013-3-14,73.5,54.8,35.9,43.0,35.2,31.0,91,53,25,30.42,30.23,6,1,0,0.00
2013-3-15,79.6,62.4,43.5,56.0,47.6,40.0,92,62,32,30.26,30.02,10,2,0,0.00
2013-3-16,78.8,66.1,53.2,60.0,55.0,51.0,94,71,43,30.04,29.83,17,3,0,0.00
2013-3-17,80.7,66.6,56.2,66.0,60.1,54.0,95,81,56,29.89,29.69,10,2,0,0.00
2013-3-18,86.1,74.0,65.8,67.0,63.8,51.0,93,73,48,29.93,29.66,8,2,0,0.00
2013-3-19,75.3,62.8,50.7,50.0,42.5,37.0,80,51,30,30.03,29.90,7,2,0,0.00
2013-3-20,71.8,59.1,48.0,47.0,38.9,27.0,88,52,21,30.20,30.01,7,2,0,0.13
2013-3-21,66.1,54.0,42.2,43.0,37.1,33.0,85,56,31,30.05,29.75,10,2,0,0.00
2013-3-22,80.1,66.5,56.5,67.0,58.3,44.0,87,75,56,29.79,29.63,7,2,0,0.00
2013-3-23,73.9,66.5,58.4,66.0,62.3,56.0,92,86,75,29.77,29.53,7,1,0,0.28
2013-3-24,59.6,54.8,42.3,55.0,42.8,30.0,91,67,37,30.09,29.61,16,4,0,0.01
2013-3-25,59.6,46.6,34.4,30.0,24.6,16.0,73,46,22,30.32,30.09,11,3,0,0.00
2013-3-26,57.0,43.6,27.9,30.0,24.5,22.0,84,50,29,30.45,30.30,8,1,0,0.00
2013-3-27,66.0,48.0,29.8,35.0,30.5,26.0,91,56,28,30.43,30.20,7,1,0,0.00
2013-3-28,71.3,55.5,39.8,47.0,37.8,33.0,90,57,26,30.32,30.16,6,1,0,0.00
2013-3-29,79.2,64.6,51.1,57.0,50.5,42.0,94,65,30,30.26,30.09,8,1,0,0.00
2013-3-30,78.1,65.2,56.6,63.0,57.5,54.0,94,78,52,30.14,29.92,11,2,0,0.11
2013-3-31,72.1,62.6,56.2,65.0,59.8,55.0,94,90,73,30.00,29.82,8,1,0,0.93
2013-4-1,77.6,63.7,54.7,61.0,52.5,43.0,97,72,30,30.08,29.93,6,1,0,0.00
2013-4-2,78.1,64.5,51.6,62.0,53.8,47.0,92,70,47,30.06,29.90,7,1,0,0.00
2013-4-3,63.7,50.5,46.8,52.0,47.0,44.0,95,88,65,30.08,29.81,6,2,0,0.98
2013-4-4,50.4,47.2,45.1,45.0,44.0,43.0,95,89,81,30.11,29.98,6,1,0,0.01
2013-4-5,72.5,56.2,41.2,48.0,43.4,38.0,93,66,33,30.19,30.04,6,1,0,0.00
2013-4-6,75.3,60.1,45.1,55.0,49.7,43.0,94,71,45,30.10,29.95,9,2,0,0.00
2013-4-7,78.3,67.1,55.3,60.0,57.3,52.0,92,73,48,30.02,29.85,11,2,0,0.00
2013-4-8,79.8,70.6,62.9,65.0,61.9,59.0,93,75,55,29.90,29.80,12,3,0,0.00
2013-4-9,80.5,73.5,66.6,71.0,67.6,62.0,93,82,73,29.86,29.74,12,4,0,0.00
2013-4-10,82.8,76.4,61.6,71.0,69.2,54.0,87,79,67,29.84,29.68,13,4,0,0.13
2013-4-11,61.2,51.0,46.5,53.0,47.4,43.0,96,88,59,29.86,29.71,7,2,0,1.34
2013-4-12,75.4,57.6,41.3,52.0,44.0,39.0,94,66,30,29.99,29.86,6,0,0,0.00
2013-4-13,80.9,66.0,46.8,54.0,48.6,44.0,94,58,30,30.01,29.80,6,1,0,0.00
2013-4-14,77.7,67.4,58.3,65.0,59.4,50.0,95,76,59,29.80,29.64,6,1,0,0.07
2013-4-15,86.5,76.2,63.7,72.0,67.4,61.0,94,76,53,29.85,29.73,11,2,0,0.00
2013-4-16,81.4,76.9,73.9,73.0,71.9,71.0,92,85,75,29.97,29.84,10,2,0,0.00
2013-4-17,87.2,78.2,72.8,73.0,70.8,69.0,91,79,58,29.98,29.80,16,3,0,0.00
2013-4-18,82.4,70.8,49.5,72.0,64.8,47.0,93,82,68,29.97,29.64,13,4,0,0.80
2013-4-19,62.4,51.8,43.9,47.0,38.0,32.0,91,62,39,30.19,29.98,8,3,0,0.00
2013-4-20,70.4,55.2,37.6,47.0,39.7,34.0,93,61,32,30.25,30.07,8,1,0,0.00
2013-4-21,74.4,59.5,43.1,50.0,43.5,39.0,94,60,30,30.22,30.05,6,1,0,0.00
2013-4-22,79.0,63.3,45.1,55.0,48.9,42.0,94,63,36,30.11,29.92,6,1,0,0.00
2013-4-23,83.6,71.5,59.5,68.0,63.2,53.0,93,76,53,29.98,29.84,8,2,0,0.00
2013-4-24,70.8,58.7,50.1,68.0,53.7,45.0,94,84,65,30.24,29.89,8,2,0,0.41
2013-4-25,70.8,58.8,49.4,47.0,44.2,39.0,86,61,31,30.32,30.20,9,1,0,0.00
2013-4-26,77.4,65.9,51.3,67.0,57.7,46.0,91,75,64,30.24,30.06,6,1,0,0.00
2013-4-27,82.8,74.2,67.4,69.0,65.8,62.0,94,77,52,30.10,29.92,8,1,0,0.00
2013-4-28,79.9,70.6,63.4,69.0,65.0,60.0,93,83,57,29.98,29.85,6,1,0,0.02
2013-4-29,84.5,70.6,60.9,68.0,60.3,56.0,96,73,41,29.94,29.79,5,0,0,0.00
2013-4-30,77.9,69.3,59.9,68.0,63.5,57.0,94,82,70,29.84,29.75,7,1,0,0.00
2013-5-1,83.2,70.8,65.8,68.0,64.7,63.0,94,82,54,29.86,29.76,5,0,0,1.19
2013-5-2,70.8,66.6,56.7,65.0,63.5,55.0,95,89,80,30.00,29.85,10,1,0,0.03
2013-5-3,62.0,51.4,44.6,54.0,44.4,39.0,93,78,52,30.07,29.98,11,3,0,0.00
2013-5-4,76.0,58.5,37.5,48.0,39.9,35.0,94,56,29,30.03,29.77,6,1,0,0.00
2013-5-5,67.1,56.1,42.8,46.0,41.5,36.0,85,60,43,30.02,29.91,7,1,0,0.00
2013-5-6,78.1,61.3,43.8,56.0,49.2,41.0,93,67,41,30.04,29.88,7,1,0,0.00
2013-5-7,82.6,68.8,55.1,61.0,54.2,50.0,92,64,33,30.02,29.92,7,1,0,0.00
2013-5-8,84.1,70.1,55.3,65.0,58.9,53.0,94,70,47,30.05,29.95,6,1,0,0.00
2013-5-9,80.1,70.4,61.2,69.0,65.2,58.0,94,84,66,30.02,29.91,6,1,0,0.56
2013-5-10,75.8,69.5,64.5,68.0,65.3,62.0,96,87,72,29.96,29.75,11,1,0,2.10
2013-5-11,82.2,71.5,63.4,69.0,63.7,59.0,95,78,56,30.05,29.90,7,1,0,0.01
2013-5-12,76.8,65.9,55.6,59.0,54.4,48.0,94,69,47,30.16,30.04,6,1,0,0.00
2013-5-13,80.1,65.5,48.5,55.0,49.4,46.0,94,61,30,30.27,30.13,7,1,0,0.00
2013-5-14,85.9,71.1,54.8,63.0,54.2,51.0,93,59,31,30.21,30.06,8,1,0,0.00
2013-5-15,83.0,69.1,58.9,66.0,60.6,53.0,94,76,54,30.13,29.93,7,1,0,0.00
2013-5-16,84.3,73.5,66.0,70.0,65.8,63.0,93,77,60,29.96,29.79,11,2,0,0.00
2013-5-17,88.0,77.1,68.1,74.0,69.6,63.0,93,78,61,29.93,29.83,7,2,0,0.00
2013-5-18,89.0,80.0,73.9,73.0,70.8,68.0,89,75,56,29.96,29.87,6,2,0,0.00
2013-5-19,89.3,80.0,72.8,73.0,70.8,69.0,91,75,52,29.90,29.81,10,2,0,0.00
2013-5-20,89.5,81.5,76.5,75.0,72.6,71.0,87,75,60,29.90,29.76,13,3,0,0.00
2013-5-21,90.5,80.6,69.6,74.0,72.0,65.0,92,76,55,29.86,29.69,14,2,0,0.72
2013-5-22,83.0,73.6,66.6,73.0,68.7,65.0,95,85,70,29.91,29.74,6,1,0,0.60
2013-5-23,88.4,77.0,69.4,77.0,70.7,64.0,94,82,62,30.01,29.89,5,0,0,0.04
2013-5-24,88.0,76.5,65.5,73.0,67.8,63.0,94,75,52,30.11,29.99,4,1,0,0.00
2013-5-25,85.7,77.6,70.9,70.0,66.9,62.0,85,70,57,30.16,30.04,6,1,0,0.00
2013-5-26,84.0,77.7,72.3,70.0,68.3,63.0,91,74,52,30.11,30.00,6,1,0,0.00
2013-5-27,88.8,78.8,70.4,72.0,68.3,62.0,92,72,42,30.04,29.90,9,1,0,0.00
2013-5-28,88.0,78.7,70.6,72.0,68.5,65.0,93,73,49,29.97,29.86,10,1,0,0.00
2013-5-29,88.4,78.2,68.8,73.0,69.8,66.0,93,76,55,29.92,29.80,6,1,0,0.00
2013-5-30,87.2,79.9,73.9,79.0,73.2,71.0,93,80,64,29.89,29.79,8,2,0,0.08
2013-5-31,90.3,80.6,74.2,78.0,73.7,71.0,93,80,60,29.91,29.81,11,2,0,0.00
2013-6-1,92.3,82.6,76.3,77.0,74.5,73.0,92,77,59,29.88,29.78,7,2,0,0.00
2013-6-2,83.4,77.0,71.1,74.0,71.1,69.0,95,82,68,29.93,29.82,4,0,0,0.36
2013-6-3,86.7,77.3,69.1,72.0,68.9,67.0,93,77,56,29.90,29.79,5,0,0,0.00
2013-6-4,91.6,81.2,68.3,74.0,69.7,64.0,89,69,50,29.88,29.76,5,0,0,0.00
2013-6-5,92.7,83.6,74.6,77.0,73.7,71.0,92,73,54,29.86,29.69,6,0,0,0.00
2013-6-6,82.0,75.1,70.4,75.0,70.8,68.0,96,87,70,29.84,29.70,6,1,0,2.85
2013-6-7,85.7,75.4,68.8,72.0,68.6,66.0,96,81,56,29.85,29.77,5,1,0,0.00
2013-6-8,87.4,75.9,68.3,73.0,68.2,66.0,93,78,52,29.89,29.81,5,0,0,0.00
2013-6-9,90.3,74.9,68.4,75.0,69.8,66.0,94,85,58,29.91,29.81,16,1,0,0.39
2013-6-10,92.3,79.6,67.9,76.0,71.7,67.0,97,79,53,29.95,29.88,5,0,0,0.01
2013-6-11,93.4,83.1,73.0,77.0,74.4,70.0,94,76,54,30.02,29.92,5,0,0,0.00
2013-6-12,93.4,84.0,73.9,78.0,74.1,71.0,93,73,52,30.03,29.92,5,0,0,0.00
2013-6-13,92.9,84.1,74.6,77.0,74.5,72.0,93,74,54,30.00,29.84,6,0,0,0.00
2013-6-14,94.5,84.7,75.8,80.0,74.5,66.0,91,73,59,29.93,29.81,5,1,0,0.00
2013-6-15,91.2,80.9,69.4,73.0,68.9,65.0,89,68,47,29.95,29.85,3,0,0,0.00
2013-6-16,93.6,84.1,75.8,76.0,73.5,71.0,90,72,52,29.98,29.87,6,1,0,0.00
2013-6-17,93.4,83.9,73.7,77.0,73.4,70.0,92,72,50,29.94,29.82,10,1,0,0.00
2013-6-18,85.3,77.8,72.5,78.0,73.7,70.0,94,87,73,29.94,29.83,6,1,0,1.06
2013-6-19,84.9,76.2,70.6,76.0,72.2,69.0,95,88,71,29.97,29.90,6,0,0,0.16
2013-6-20,92.1,80.0,71.5,79.0,73.0,67.0,95,80,56,30.05,29.95,10,1,0,0.08
2013-6-21,91.6,80.0,73.3,78.0,73.1,70.0,94,80,56,30.06,29.98,4,0,0,0.02
2013-6-22,92.1,81.8,70.6,77.0,72.7,69.0,95,75,54,30.04,29.91,5,0,0,0.00
2013-6-23,92.1,82.7,72.7,76.0,73.1,69.0,92,74,50,30.00,29.91,5,1,0,0.00
2013-6-24,91.8,80.8,74.9,78.0,74.3,72.0,94,82,57,30.05,29.96,5,0,0,0.70
2013-6-25,91.6,83.4,71.1,78.0,74.3,70.0,96,75,57,30.02,29.90,5,0,0,0.01
2013-6-26,94.3,83.9,75.1,78.0,74.8,73.0,94,75,51,29.98,29.86,5,0,0,0.00
2013-6-27,94.9,84.1,73.9,77.0,73.6,71.0,93,72,47,29.98,29.85,6,0,0,0.00
2013-6-28,93.6,84.5,75.6,77.0,74.3,72.0,89,73,53,29.89,29.70,6,0,0,0.00
2013-6-29,95.9,85.9,77.2,79.0,73.4,67.0,90,68,41,29.74,29.63,9,1,0,0.00
2013-6-30,90.5,80.0,67.4,69.0,65.1,61.0,91,63,39,29.78,29.70,9,1,0,0.00
2013-7-1,87.8,77.2,65.6,68.0,64.3,62.0,91,66,45,29.89,29.78,7,1,0,0.00
2013-7-2,88.4,77.1,65.6,70.0,64.4,62.0,93,67,43,29.96,29.88,3,0,0,0.00
2013-7-3,89.9,78.1,65.0,69.0,63.7,61.0,93,64,41,30.00,29.87,7,0,0,0.00
2013-7-4,90.3,78.8,65.5,72.0,64.9,62.0,93,65,40,29.94,29.85,7,1,0,0.00
2013-7-5,92.9,79.2,66.9,73.0,67.0,61.0,93,69,36,29.94,29.86,14,1,0,0.00
2013-7-6,91.2,78.9,70.1,74.0,70.8,68.0,94,78,53,29.94,29.84,6,1,0,0.00
2013-7-7,91.4,80.3,75.1,78.0,73.8,71.0,92,81,57,30.01,29.89,6,1,0,0.00
2013-7-8,92.3,79.7,73.3,75.0,72.8,71.0,95,81,53,30.10,29.99,5,0,0,0.00
2013-7-9,94.3,83.5,74.0,78.0,74.3,71.0,94,75,52,30.12,29.98,4,1,0,0.00
2013-7-10,94.9,84.8,75.3,76.0,74.0,72.0,93,72,48,30.04,29.87,5,0,0,0.00
2013-7-11,90.1,80.9,74.2,77.0,73.6,69.0,90,79,64,29.94,29.85,7,1,0,0.01
2013-7-12,96.3,83.6,72.8,77.0,71.3,62.0,93,69,46,29.91,29.80,8,1,0,0.00
2013-7-13,85.3,74.4,64.8,68.0,64.1,59.0,90,71,52,29.92,29.86,2,0,0,0.00
2013-7-14,87.6,77.6,68.8,74.0,68.4,64.0,89,74,56,29.92,29.84,4,0,0,0.00
2013-7-15,92.1,76.6,70.1,76.0,71.1,67.0,93,84,51,30.07,29.91,6,0,0,0.11
2013-7-16,89.7,80.5,73.9,75.0,73.1,71.0,93,79,60,30.11,30.01,8,1,0,0.09
2013-7-17,93.2,82.4,74.2,76.0,73.3,71.0,95,76,51,30.17,30.05,7,1,0,0.01
2013-7-18,93.2,79.1,72.3,76.0,71.3,69.0,92,78,48,30.10,29.96,5,0,0,0.01
2013-7-19,92.1,79.5,69.8,74.0,70.4,67.0,93,75,52,30.02,29.87,4,0,0,0.00
2013-7-20,91.8,79.8,69.8,74.0,70.5,67.0,93,75,50,29.95,29.83,4,0,0,0.00
2013-7-21,89.3,78.8,71.5,77.0,72.4,69.0,94,81,59,29.94,29.88,8,1,0,0.01
2013-7-22,92.3,82.9,73.7,81.0,74.9,71.0,94,78,56,29.98,29.87,12,1,0,0.06
2013-7-23,94.7,84.8,77.6,77.0,74.4,71.0,93,73,47,29.98,29.83,8,1,0,0.00
2013-7-24,92.1,81.7,74.4,77.0,74.2,72.0,94,79,56,29.92,29.80,11,1,0,0.83
2013-7-25,93.4,81.8,72.8,77.0,72.7,70.0,96,76,50,30.00,29.88,3,0,0,0.01
2013-7-26,92.1,82.8,73.7,77.0,73.3,70.0,89,74,55,30.01,29.84,5,1,0,0.00
2013-7-27,85.9,79.8,74.7,79.0,74.7,71.0,95,84,69,29.89,29.81,7,1,0,0.50
2013-7-28,91.4,80.7,69.9,76.0,71.6,68.0,94,75,53,29.95,29.87,5,0,0,0.00
2013-7-29,93.2,83.3,74.7,78.0,73.9,71.0,93,75,52,30.03,29.94,3,0,0,0.00
2013-7-30,95.4,83.7,71.6,77.0,72.0,66.0,93,70,38,30.09,29.96,5,0,0,0.00
2013-7-31,95.6,84.7,74.9,77.0,73.2,69.0,91,70,46,30.04,29.87,5,0,0,0.00
2013-8-1,94.5,83.8,76.5,79.0,75.8,73.0,92,77,59,29.98,29.84,6,0,0,0.04
2013-8-2,96.6,85.9,74.0,79.0,74.9,71.0,92,71,47,29.92,29.85,3,0,0,0.00
2013-8-3,93.6,85.0,75.4,78.0,75.3,72.0,92,73,55,29.99,29.91,4,0,0,0.00
2013-8-4,96.6,84.4,75.1,79.0,74.7,71.0,92,74,45,30.04,29.90,7,0,0,0.00
2013-8-5,97.1,85.0,75.8,79.0,74.6,72.0,92,73,45,29.99,29.85,6,1,0,0.00
2013-8-6,98.2,87.1,76.1,78.0,73.5,67.0,92,67,37,29.93,29.79,6,1,0,0.00
2013-8-7,97.8,87.0,78.3,77.0,74.5,69.0,92,69,39,29.91,29.78,5,1,0,0.00
2013-8-8,97.3,85.3,75.1,77.0,72.8,67.0,93,69,38,29.89,29.79,5,0,0,0.00
2013-8-9,97.8,80.0,75.4,82.0,70.5,72.0,91,70,46,29.95,29.82,5,0,0,0.38
2013-8-10,93.8,82.3,77.4,79.0,75.9,74.0,93,82,53,30.00,29.92,5,0,0,0.02
2013-8-11,94.9,80.8,74.2,78.0,74.3,71.0,94,82,47,30.04,29.95,5,0,0,0.73
2013-8-12,91.2,80.7,74.7,79.0,75.3,72.0,95,84,64,30.04,29.92,6,0,0,0.03
2013-8-13,94.9,81.7,73.7,81.0,75.3,71.0,95,82,53,29.97,29.82,8,1,0,1.42
2013-8-14,83.8,76.9,72.8,79.0,74.4,71.0,97,92,80,29.95,29.86,5,0,0,1.05
2013-8-15,87.8,76.9,68.4,74.0,67.4,63.0,84,73,57,29.98,29.87,8,1,0,0.00
2013-8-16,87.8,77.0,66.1,71.0,66.1,63.0,92,71,50,29.96,29.88,5,0,0,0.00
2013-8-17,88.2,77.1,66.0,72.0,67.6,63.0,93,74,51,29.96,29.87,7,1,0,0.00
2013-8-18,89.3,79.1,69.6,72.0,68.5,67.0,93,72,50,29.99,29.91,8,1,0,0.00
2013-8-19,87.6,77.2,68.6,74.0,69.0,65.0,94,77,56,30.02,29.91,7,1,0,0.00
2013-8-20,89.9,58.3,68.4,75.0,53.4,65.0,94,62,55,30.01,29.93,5,0,0,0.48
2013-8-21,92.3,73.9,73.3,77.0,67.7,71.0,95,75,56,30.07,29.97,5,0,0,0.00
2013-8-22,92.7,82.6,72.3,77.0,72.7,70.0,94,74,53,30.05,29.90,3,0,0,0.00
2013-8-23,94.3,83.7,73.9,78.0,73.5,71.0,93,73,50,29.96,29.85,6,0,0,0.00
2013-8-24,91.8,80.5,72.7,76.0,73.0,69.0,92,79,56,30.03,29.93,6,1,0,0.41
2013-8-25,90.1,80.5,72.7,75.0,72.9,71.0,94,79,59,30.10,30.02,8,1,0,0.00
2013-8-26,88.2,79.4,74.6,76.0,73.1,70.0,92,81,64,30.14,30.04,5,1,0,0.00
2013-8-27,90.7,80.4,71.5,75.0,70.8,68.0,93,74,48,30.09,29.97,2,0,0,0.00
2013-8-28,92.3,80.9,69.6,75.0,69.3,67.0,92,70,46,30.04,29.93,3,0,0,0.00
2013-8-29,92.7,80.4,69.6,76.0,68.6,65.0,93,70,44,30.02,29.91,3,0,0,0.00
2013-8-30,92.9,81.5,70.3,76.0,70.1,66.0,93,70,46,29.98,29.85,4,0,0,0.00
2013-8-31,92.9,82.5,71.8,76.0,71.5,68.0,92,71,49,29.93,29.79,6,0,0,0.00
2013-9-1,94.5,83.1,72.0,76.0,71.8,68.0,92,70,45,29.89,29.76,6,0,0,0.00
2013-9-2,96.3,84.5,74.7,78.0,72.6,67.0,92,70,38,29.92,29.79,6,1,0,0.00
2013-9-3,95.6,84.0,77.7,79.0,75.1,71.0,89,76,50,29.92,29.80,3,0,0,0.10
2013-9-4,95.4,83.3,73.3,78.0,73.4,70.0,92,74,48,30.01,29.89,5,0,0,0.00
2013-9-5,96.1,84.0,73.3,77.0,72.1,67.0,92,70,40,30.05,29.94,5,0,0,0.00
2013-9-6,92.7,82.6,72.3,76.0,72.2,69.0,93,72,51,30.05,29.92,6,0,0,0.00
2013-9-7,93.6,82.1,71.6,77.0,71.0,67.0,92,71,44,30.00,29.88,3,0,0,0.00
2013-9-8,92.5,78.1,69.3,74.0,69.4,67.0,93,77,48,29.97,29.88,5,0,0,0.00
2013-9-9,68.8,68.8,68.8,65.0,65.0,65.0,88,88,88,29.92,29.92,0,0,0,0.00
2013-9-10,94.3,86.9,78.6,71.0,70.3,69.0,77,59,45,30.03,29.94,4,0,0,0.00
2013-9-11,93.8,82.4,72.3,75.0,69.8,67.0,92,68,44,30.06,29.94,7,1,0,0.00
2013-9-12,94.9,81.7,69.9,76.0,67.9,64.0,92,66,37,30.01,29.83,3,0,0,0.00
2013-9-13,96.6,81.7,71.1,74.0,69.4,66.0,89,68,39,29.87,29.73,6,1,0,0.00
2013-9-14,90.5,80.1,69.9,71.0,64.5,60.0,81,60,43,29.92,29.83,5,1,0,0.00
2013-9-15,93.4,80.0,66.8,73.0,65.7,57.0,78,63,45,29.99,29.89,3,0,0,0.00
2013-9-16,94.3,81.8,70.8,75.0,68.6,65.0,91,66,42,30.02,29.91,6,0,0,0.00
2013-9-17,94.5,82.0,71.5,74.0,68.8,62.0,92,67,36,30.03,29.88,6,0,0,0.00
2013-9-18,93.4,80.7,72.3,76.0,70.9,68.0,90,73,49,29.99,29.87,5,1,0,0.00
2013-9-19,92.1,9.7,90.3,74.0,6.2,72.0,59,5,53,29.94,29.83,6,0,0,0.00
2013-9-20,71.8,0.9,71.8,-99.9,0.0,200.0,0,0,100,29.90,29.72,0,0,0,0.02
2013-9-21,76.5,13.3,71.6,70.0,9.4,67.0,82,11,78,29.78,29.71,3,0,0,0.00
2013-9-22,-200.0,0.0,200.0,-99.9,0.0,200.0,0,0,100,29.81,29.71,0,0,0,0.00
2013-9-23,-200.0,0.0,200.0,-99.9,0.0,200.0,0,0,100,29.80,29.75,0,0,0,0.00
2013-9-24,86.3,63.1,69.6,77.0,55.0,65.0,94,61,60,29.78,29.71,1,0,0,0.00
2013-9-25,88.2,74.4,64.0,70.0,60.9,57.0,96,70,35,29.81,29.73,8,0,0,0.00
2013-9-26,89.7,74.5,60.2,68.0,62.1,57.0,95,69,34,29.87,29.75,2,0,0,0.00
2013-9-27,88.0,75.3,62.3,70.0,64.5,60.0,95,71,45,29.94,29.85,5,0,0,0.00
2013-9-28,86.1,74.9,68.4,73.0,68.2,65.0,94,81,59,29.99,29.89,5,1,0,0.00
2013-10-2,80.7,65.1,74.7,77.0,62.3,72.0,92,75,87,29.92,29.86,1,0,0,0.02
2013-10-3,88.0,60.8,70.4,78.0,56.0,69.0,98,66,59,29.94,29.84,6,1,0,0.00
2013-10-4,88.6,78.0,74.4,78.0,73.6,72.0,96,86,62,29.92,29.85,5,1,0,0.06
2013-10-5,85.9,77.5,71.3,78.0,73.7,70.0,98,88,71,29.90,29.79,5,0,0,0.06
2013-10-6,75.8,67.4,56.5,74.0,58.0,49.0,97,75,44,29.95,29.81,10,2,0,0.10
2013-10-7,77.7,59.7,50.2,57.0,49.3,48.0,93,66,43,30.03,29.93,6,1,0,0.00
2013-10-8,77.0,62.3,49.4,58.0,53.1,48.0,95,74,47,30.04,29.93,3,0,0,0.00
2013-10-9,80.3,62.7,48.9,59.0,52.8,47.0,95,72,41,30.04,29.95,3,0,0,0.00
2013-10-10,79.8,64.3,54.2,66.0,58.1,52.0,96,80,58,30.06,29.92,3,0,0,0.00
2013-10-11,85.1,70.5,57.0,72.0,64.0,55.0,96,81,59,29.96,29.86,4,0,0,0.00
2013-10-12,86.1,74.4,67.9,75.0,70.2,66.0,96,87,65,30.05,29.88,6,0,0,1.33
2013-10-13,82.4,70.8,68.4,72.0,66.3,68.0,98,81,67,30.12,29.96,5,0,0,0.00
2013-10-14,82.6,69.6,69.8,70.0,60.9,66.0,91,71,61,30.05,29.93,5,0,0,0.00
2013-10-15,85.5,76.2,69.4,72.0,68.9,67.0,92,79,58,29.95,29.83,6,0,0,0.00
2013-10-16,81.2,73.4,64.7,73.0,68.8,62.0,93,85,67,29.91,29.83,7,0,0,0.00
2013-10-17,73.2,64.3,56.3,62.0,59.6,53.0,94,85,64,30.00,29.89,5,0,0,0.00
2013-10-18,67.9,60.2,51.4,61.0,55.8,49.0,96,86,68,30.00,29.86,5,0,0,0.02
2013-10-19,69.4,60.6,48.5,61.0,56.1,45.0,96,86,65,30.02,29.87,8,1,0,0.08
2013-10-20,71.6,54.6,40.5,51.0,44.8,38.0,96,73,37,30.05,29.92,5,0,0,0.00
2013-10-21,72.1,57.1,47.7,61.0,52.5,46.0,97,85,67,29.99,29.89,2,0,0,0.00
2013-10-22,73.0,61.2,51.9,61.0,55.5,48.0,95,82,58,29.99,29.91,7,1,0,0.00
2013-10-23,76.1,59.2,46.0,56.0,49.4,44.0,96,73,38,30.07,29.98,5,0,0,0.00
2013-10-24,82.0,64.6,46.5,59.0,53.0,44.0,93,69,41,30.18,30.04,7,1,0,0.00
2013-10-25,67.8,57.8,50.2,52.0,44.1,41.0,74,61,43,30.36,30.18,6,1,0,0.00
2013-10-26,76.3,58.0,42.1,55.0,46.9,38.0,92,69,40,30.25,30.05,6,0,0,0.00
2013-10-27,75.1,64.1,55.0,67.0,60.9,53.0,95,89,70,30.05,29.95,2,0,0,0.47
2013-10-28,78.1,69.0,64.5,68.0,64.7,62.0,97,87,66,30.11,29.97,2,0,0,0.00
2013-10-29,81.4,70.7,63.4,69.0,64.8,62.0,97,83,59,30.13,30.03,7,1,0,0.00
2013-10-30,74.7,69.4,64.2,71.0,67.4,63.0,96,93,88,30.09,29.85,10,1,0,0.35
2013-10-31,74.6,69.5,62.4,73.0,68.7,62.0,100,97,91,29.85,29.68,8,2,0,1.98
2013-11-1,74.2,30.9,54.1,62.0,25.6,50.0,100,34,43,29.89,29.78,4,0,0,0.00
2013-11-2,71.3,59.6,49.5,56.0,48.5,38.0,95,71,31,30.15,29.86,16,1,0,0.01
2013-11-3,65.0,51.4,40.9,48.0,43.3,39.0,96,76,47,30.20,30.06,8,1,0,0.00
2013-11-4,74.4,59.5,43.6,58.0,51.8,41.0,97,78,52,30.13,30.04,6,1,0,0.00
2013-11-5,76.7,67.3,57.8,66.0,61.3,54.0,94,81,68,30.08,29.98,11,1,0,0.00
2013-11-6,76.8,67.7,55.1,71.0,64.4,53.0,94,89,77,30.14,29.96,8,1,0,0.01
2013-11-7,63.1,52.9,43.3,53.0,43.8,39.0,94,73,44,30.33,30.14,7,2,0,0.01
2013-11-8,64.7,51.3,39.5,46.0,42.3,37.0,95,74,46,30.32,30.13,4,0,0,0.00
2013-11-9,66.8,55.2,47.9,51.0,46.4,43.0,94,74,44,30.20,30.11,3,0,0,0.00
2013-11-10,73.0,58.7,48.0,55.0,49.1,44.0,91,72,49,30.25,30.15,4,0,0,0.00
2013-11-11,74.2,56.3,42.2,55.0,48.6,41.0,97,78,47,30.21,30.09,2,0,0,0.00
2013-11-12,62.4,49.0,36.6,57.0,43.1,29.0,98,81,65,30.53,30.15,8,1,0,0.00
2013-11-13,55.0,40.3,30.9,30.0,27.9,25.0,84,64,31,30.56,30.37,6,1,0,0.00
2013-11-14,59.5,43.7,25.7,46.0,36.0,24.0,96,76,48,30.37,30.06,5,0,0,0.00
2013-11-15,74.6,58.4,46.5,61.0,53.3,45.0,96,84,59,30.06,29.89,6,0,0,0.00
2013-11-16,78.8,69.5,62.1,72.0,67.3,61.0,100,93,75,29.93,29.79,10,2,0,0.02
2013-11-17,83.8,61.9,70.8,75.0,58.6,70.0,99,71,71,29.88,29.73,6,1,0,0.03
2013-11-18,78.5,68.3,53.8,73.0,49.2,37.0,94,55,26,30.09,29.88,7,1,0,0.00
2013-11-19,66.1,55.8,48.6,42.0,34.8,25.0,73,48,23,30.14,30.01,12,1,0,0.00
2013-11-20,71.1,53.3,39.6,44.0,37.0,32.0,82,58,25,30.06,29.93,5,0,0,0.00
2013-11-21,73.5,64.4,49.6,67.0,60.9,45.0,96,88,79,30.08,30.00,7,1,0,0.00
2013-11-22,67.8,65.9,58.4,67.0,64.8,57.0,97,96,93,30.19,30.05,7,1,0,0.49
2013-11-23,57.6,47.7,41.1,56.0,45.7,34.0,96,92,76,30.37,30.17,10,2,0,0.13
2013-11-24,48.5,41.0,34.6,34.0,28.9,26.0,75,63,45,30.43,30.28,7,2,0,0.00
2013-11-25,39.6,37.6,35.6,39.0,35.8,29.0,99,93,67,30.29,29.91,6,1,0,2.60
2013-11-26,40.6,39.4,38.0,41.0,39.3,38.0,100,99,96,30.11,29.86,8,2,0,0.30
2013-11-27,47.3,37.7,28.7,38.0,30.3,24.0,98,77,50,30.37,30.11,10,2,0,0.01
2013-11-28,48.8,35.1,24.7,30.0,25.8,23.0,94,72,42,30.45,30.34,5,0,0,0.00
2013-11-29,58.3,38.9,23.3,34.0,27.3,21.0,95,68,32,30.48,30.36,3,0,0,0.00
2013-11-30,63.9,44.3,27.5,42.0,32.8,25.0,96,69,29,30.40,30.18,5,0,0,0.00
2013-12-1,71.5,56.5,38.9,52.0,45.1,34.0,90,68,41,30.20,29.92,6,1,0,0.00
2013-12-2,74.6,63.8,58.0,63.0,57.1,50.0,94,80,61,29.91,29.62,12,1,0,0.00
2013-12-3,76.8,68.3,58.6,66.0,63.2,57.0,97,85,64,29.67,29.57,8,2,0,0.00
2013-12-4,79.6,72.9,68.1,70.0,67.7,66.0,94,84,67,29.79,29.67,9,2,0,0.00
2013-12-5,81.2,68.1,46.1,72.0,64.1,45.0,94,87,67,30.01,29.77,8,2,0,0.06
2013-12-6,45.5,40.4,35.9,44.0,39.3,34.0,97,96,91,30.33,29.97,16,3,0,0.54
2013-12-7,35.9,33.2,32.2,34.0,30.4,29.0,93,89,84,30.41,30.28,9,2,0,0.00
2013-12-8,41.6,35.2,31.9,40.0,33.6,30.0,95,88,89,30.28,30.06,4,0,0,0.08
2013-12-9,41.9,39.9,36.2,41.0,38.9,35.0,96,96,95,30.24,30.09,7,2,0,0.20
2013-12-10,47.9,38.4,31.6,35.0,31.9,28.0,96,79,56,30.42,30.24,10,2,0,0.01
2013-12-11,52.0,40.0,27.2,38.0,32.2,25.0,94,75,54,30.49,30.35,4,0,0,0.00
2013-12-12,54.1,40.1,31.3,33.0,27.6,21.0,89,65,29,30.56,30.37,6,1,0,0.00
2013-12-13,57.2,46.3,34.4,56.0,37.8,28.0,95,73,56,30.37,29.84,8,1,0,0.32
2013-12-14,61.5,52.9,42.5,60.0,50.1,38.0,97,90,82,30.19,29.81,9,2,0,0.14
2013-12-15,51.7,42.1,32.8,38.0,33.8,29.0,86,73,56,30.32,30.19,8,2,0,0.00
2013-12-16,62.1,42.7,28.2,40.0,32.5,26.0,95,72,31,30.33,30.21,6,0,0,0.00
2013-12-17,68.1,47.8,32.1,44.0,37.3,30.0,96,71,35,30.32,30.22,7,0,0,0.00
2013-12-18,68.6,50.4,33.1,48.0,39.9,31.0,95,71,39,30.33,30.16,7,1,0,0.00
2013-12-19,73.0,60.1,43.8,61.0,52.4,39.0,92,77,57,30.16,29.94,11,2,0,0.00
2013-12-20,76.0,69.9,64.8,69.0,66.0,61.0,92,87,75,29.96,29.83,11,4,0,0.00
2013-12-21,74.6,68.0,56.5,71.0,65.3,55.0,96,91,86,29.82,29.54,17,5,0,1.36
2013-12-22,59.8,53.1,39.2,59.0,51.6,35.0,98,94,82,30.28,29.80,11,2,0,0.04
2013-12-23,48.5,39.7,31.0,34.0,31.5,26.0,83,73,51,30.52,30.28,9,2,0,0.00
2013-12-24,41.8,31.1,27.0,32.0,27.1,24.0,93,85,62,30.57,30.50,2,0,0,0.00
2013-12-25,51.6,42.2,27.2,35.0,31.7,25.0,95,68,47,30.41,30.30,6,1,0,0.00
2013-12-26,59.5,45.0,32.2,39.0,34.9,30.0,95,71,42,30.40,30.28,4,0,0,0.00
2013-12-27,53.6,43.9,39.9,37.0,33.2,30.0,82,64,41,30.45,30.32,17,0,0,0.00
2013-12-28,51.7,45.6,40.3,42.0,38.8,35.0,86,77,69,30.32,29.99,4,0,0,0.01
2013-12-29,60.5,46.2,31.9,43.0,36.1,30.0,95,69,39,30.13,30.00,4,0,0,0.01
2013-12-30,49.6,46.0,42.2,43.0,40.3,37.0,88,81,72,30.37,30.10,7,1,0,0.00
2013-12-31,47.3,42.1,37.8,37.0,33.9,32.0,86,73,58,30.44,30.30,8,1,0,0.00
2014-1-1,60.5,50.3,38.6,53.0,44.4,34.0,92,80,63,30.29,30.02,6,1,0,0.05
2014-1-2,56.2,47.2,33.5,55.0,35.0,22.0,95,66,33,30.40,29.99,13,3,0,0.00